Anchor, Illinois
Current Conditions -  °F | °C
As of 6:56 AM on Friday 19 Dec 2014 (Local Time) from KBMI Reporting Station
Clear Clear  
Wind Chill: 12°   Ceiling: Unl
Heat Index: 19°   Visibility: 7mi
Dew Point: 17°   Wind: 5mph
Humidity: 92%   Direction: 350°N
Pressure: 30.3"   Gusts: NA
Location:  40.57°N, 88.54°W
Report Text: KBMI 191256Z 35004KT 7SM CLR M07/M08 A3030 RMK AO2 T10721083 SLP284
Loading
Personal Weather Stations






























Interactive Weather Map New forecast layout! Learn more

10-Day Weather Forecast

Advertisements
Track Severe Weather on mobile